createdAt,value
2023-03-18T00:02:18.527Z,17.83
2023-03-18T00:04:46.572Z,18.55
2023-03-18T00:07:14.525Z,16.92
2023-03-18T00:09:42.519Z,15.65
2023-03-18T00:12:10.650Z,16.77
2023-03-18T00:14:39.557Z,16.45
2023-03-18T00:17:08.048Z,19.83
2023-03-18T00:19:35.623Z,16.40
2023-03-18T00:22:04.096Z,14.88
2023-03-18T00:24:31.627Z,19.55
2023-03-18T00:26:59.114Z,16.70
2023-03-18T00:29:26.855Z,15.73
2023-03-18T00:31:54.678Z,17.98
2023-03-18T00:34:22.366Z,14.52
2023-03-18T00:36:51.172Z,22.50
2023-03-18T00:39:26.089Z,17.67
2023-03-18T00:41:56.659Z,16.98
2023-03-18T00:44:26.220Z,16.02
2023-03-18T00:46:54.150Z,17.20
2023-03-18T00:49:21.723Z,16.95
2023-03-18T00:51:49.230Z,17.25
2023-03-18T00:54:18.736Z,19.05
2023-03-18T00:56:46.882Z,14.25
2023-03-18T00:59:15.107Z,13.57
2023-03-18T01:01:42.853Z,15.68
2023-03-18T01:04:10.483Z,16.50
2023-03-18T01:06:40.172Z,18.20
2023-03-18T01:09:11.253Z,17.27
2023-03-18T01:11:38.895Z,18.38
2023-03-18T01:14:06.416Z,18.65
2023-03-18T01:16:34.613Z,15.90
2023-03-18T01:19:02.644Z,14.57
2023-03-18T01:21:30.256Z,18.27
2023-03-18T01:23:57.753Z,14.75
2023-03-18T01:26:26.320Z,20.05
2023-03-18T01:28:53.995Z,19.08
2023-03-18T01:31:21.815Z,18.80
2023-03-18T01:33:49.893Z,23.35
2023-03-18T01:36:17.590Z,14.43
2023-03-18T01:38:45.520Z,24.73
2023-03-18T01:41:13.829Z,28.33
2023-03-18T01:43:44.521Z,20.15
2023-03-18T01:46:45.961Z,19.88
2023-03-18T01:49:19.096Z,22.33
2023-03-18T01:51:51.270Z,15.57
2023-03-18T01:54:19.965Z,31.70
2023-03-18T01:56:50.438Z,22.73
2023-03-18T01:59:19.362Z,25.25
2023-03-18T02:02:13.740Z,20.45
2023-03-18T02:04:44.620Z,24.63
2023-03-18T02:07:24.345Z,22.25
2023-03-18T02:09:54.012Z,23.77
2023-03-18T02:12:31.848Z,19.40
2023-03-18T02:15:00.508Z,19.52
2023-03-18T02:17:32.684Z,20.63
2023-03-18T02:20:32.231Z,19.92
2023-03-18T02:23:10.394Z,19.63
2023-03-18T02:25:40.915Z,24.02
2023-03-18T02:28:13.492Z,21.25
2023-03-18T02:30:51.206Z,20.80
2023-03-18T02:33:22.236Z,23.27
2023-03-18T02:35:59.421Z,22.60
2023-03-18T02:38:26.983Z,24.90
2023-03-18T02:40:54.553Z,20.98
2023-03-18T02:43:31.549Z,18.52
2023-03-18T02:46:12.249Z,18.98
2023-03-18T02:48:45.724Z,25.00
2023-03-18T02:51:16.054Z,23.17
2023-03-18T02:53:44.862Z,22.40
2023-03-18T02:56:12.537Z,19.02
2023-03-18T02:58:40.636Z,20.92
2023-03-18T03:01:09.440Z,22.80
2023-03-18T03:03:37.918Z,21.02
2023-03-18T03:06:05.805Z,20.83
2023-03-18T03:08:33.330Z,19.88
2023-03-18T03:11:01.112Z,22.42
2023-03-18T03:13:29.349Z,21.08
2023-03-18T03:15:57.388Z,22.65
2023-03-18T03:18:26.439Z,19.85
2023-03-18T03:20:54.156Z,19.05
2023-03-18T03:23:22.076Z,21.35
2023-03-18T03:25:50.338Z,21.85
2023-03-18T03:28:17.932Z,20.55
2023-03-18T03:30:46.061Z,23.08
2023-03-18T03:33:14.470Z,18.17
2023-03-18T03:35:42.691Z,24.52
2023-03-18T03:38:10.523Z,24.30
2023-03-18T03:40:38.832Z,20.77
2023-03-18T03:43:06.940Z,20.52
2023-03-18T03:45:34.987Z,20.50
2023-03-18T03:48:02.484Z,22.50
2023-03-18T03:50:30.141Z,22.58
2023-03-18T03:52:58.302Z,21.83
2023-03-18T03:55:26.928Z,18.20
2023-03-18T03:57:54.471Z,18.45
2023-03-18T04:00:24.479Z,17.35
2023-03-18T04:02:54.098Z,21.75
2023-03-18T04:05:24.514Z,16.13
2023-03-18T04:07:53.357Z,17.85
2023-03-18T04:10:22.603Z,19.13
2023-03-18T04:12:51.064Z,20.15
2023-03-18T04:15:21.311Z,19.83
2023-03-18T04:17:50.529Z,20.48
2023-03-18T04:20:18.850Z,21.67
2023-03-18T04:22:46.835Z,21.67
2023-03-18T04:25:15.793Z,22.50
2023-03-18T04:27:44.095Z,21.27
2023-03-18T04:30:13.481Z,21.80
2023-03-18T04:32:41.017Z,20.25
2023-03-18T04:35:09.342Z,24.75
2023-03-18T04:37:37.556Z,24.27
2023-03-18T04:40:06.540Z,22.13
2023-03-18T04:42:34.138Z,22.92
2023-03-18T04:45:01.936Z,17.42
2023-03-18T04:47:29.461Z,25.25
2023-03-18T04:49:57.022Z,30.58
2023-03-18T04:52:24.618Z,20.05
2023-03-18T04:54:52.569Z,20.00
2023-03-18T04:57:20.193Z,19.83
2023-03-18T04:59:47.700Z,23.02
2023-03-18T05:02:15.622Z,21.15
2023-03-18T05:04:43.197Z,23.90
2023-03-18T05:07:14.577Z,20.92
2023-03-18T05:09:42.635Z,25.17
2023-03-18T05:12:17.415Z,25.42
2023-03-18T05:14:45.949Z,23.83
2023-03-18T05:17:16.473Z,28.63
2023-03-18T05:19:49.238Z,23.60
2023-03-18T05:22:18.994Z,19.48
2023-03-18T05:24:47.332Z,21.20
2023-03-18T05:27:18.210Z,23.15
2023-03-18T05:29:46.616Z,23.10
2023-03-18T05:32:14.972Z,17.92
2023-03-18T05:34:43.517Z,24.20
2023-03-18T05:37:13.079Z,19.63
2023-03-18T05:39:41.726Z,24.13
2023-03-18T05:42:11.370Z,21.42
2023-03-18T05:44:40.274Z,25.30
2023-03-18T05:47:08.458Z,24.60
2023-03-18T05:49:36.209Z,29.58
2023-03-18T05:52:04.083Z,21.35
2023-03-18T05:54:31.596Z,19.17
2023-03-18T05:56:59.598Z,24.85
2023-03-18T05:59:27.328Z,21.50
2023-03-18T06:01:54.967Z,21.98
2023-03-18T06:04:22.568Z,19.42
2023-03-18T06:06:50.223Z,25.20
2023-03-18T06:09:17.922Z,24.17
2023-03-18T06:11:46.008Z,23.65
2023-03-18T06:14:14.412Z,25.48
2023-03-18T06:16:43.393Z,25.85
2023-03-18T06:19:11.810Z,26.75
2023-03-18T06:21:40.610Z,23.00
2023-03-18T06:24:09.490Z,18.40
2023-03-18T06:26:37.065Z,23.65
2023-03-18T06:29:05.321Z,20.92
2023-03-18T06:31:32.968Z,22.20
2023-03-18T06:34:01.512Z,19.38
2023-03-18T06:36:29.177Z,23.67
2023-03-18T06:38:57.652Z,23.80
2023-03-18T06:41:25.184Z,22.88
2023-03-18T06:43:53.768Z,19.63
2023-03-18T06:46:21.369Z,25.23
2023-03-18T06:48:48.930Z,24.38
2023-03-18T06:51:16.474Z,19.88
2023-03-18T06:53:43.978Z,26.27
2023-03-18T06:56:13.395Z,19.10
2023-03-18T06:58:40.924Z,19.98
2023-03-18T07:01:09.251Z,24.08
2023-03-18T07:03:36.838Z,19.63
2023-03-18T07:06:04.498Z,19.73
2023-03-18T07:08:32.334Z,26.23
2023-03-18T07:11:00.845Z,21.85
2023-03-18T07:13:28.704Z,22.63
2023-03-18T07:15:57.174Z,22.65
2023-03-18T07:18:25.098Z,20.05
2023-03-18T07:20:52.646Z,30.65
2023-03-18T07:23:20.668Z,23.90
2023-03-18T07:25:48.205Z,19.90
2023-03-18T07:28:15.848Z,23.10
2023-03-18T07:30:43.427Z,21.45
2023-03-18T07:33:10.948Z,18.70
2023-03-18T07:35:41.023Z,21.15
2023-03-18T07:38:09.822Z,22.92
2023-03-18T07:40:38.110Z,19.08
2023-03-18T07:43:07.088Z,21.58
2023-03-18T07:45:34.670Z,25.98
2023-03-18T07:48:02.408Z,20.02
2023-03-18T07:50:30.167Z,20.27
2023-03-18T07:52:57.907Z,22.15
2023-03-18T07:55:25.418Z,18.48
2023-03-18T07:57:53.876Z,23.15
2023-03-18T08:00:22.309Z,19.05
2023-03-18T08:02:49.841Z,19.17
2023-03-18T08:05:19.189Z,16.95
2023-03-18T08:07:46.834Z,21.80
2023-03-18T08:10:14.898Z,18.20
2023-03-18T08:12:52.707Z,19.85
2023-03-18T08:15:22.157Z,17.23
2023-03-18T08:17:49.827Z,17.20
2023-03-18T08:20:17.509Z,19.70
2023-03-18T08:22:45.940Z,24.23
2023-03-18T08:25:13.847Z,18.15
2023-03-18T08:27:41.412Z,17.75
2023-03-18T08:30:10.283Z,12.70
2023-03-18T08:32:38.401Z,14.60
2023-03-18T08:35:06.484Z,20.67
2023-03-18T08:37:34.069Z,16.88
2023-03-18T08:40:02.099Z,15.45
2023-03-18T08:42:29.600Z,12.93
2023-03-18T08:44:58.060Z,17.88
2023-03-18T08:47:25.893Z,14.65
2023-03-18T08:49:53.460Z,16.60
2023-03-18T08:52:22.390Z,19.88
2023-03-18T08:54:50.023Z,16.63
2023-03-18T08:57:17.514Z,19.92
2023-03-18T08:59:45.058Z,17.60
2023-03-18T09:02:16.848Z,17.90
2023-03-18T09:04:44.994Z,14.48
2023-03-18T09:07:14.723Z,14.93
2023-03-18T09:09:44.427Z,13.52
2023-03-18T09:12:14.057Z,17.58
2023-03-18T09:14:42.466Z,12.65
2023-03-18T09:17:10.077Z,13.85
2023-03-18T09:19:38.387Z,16.83
2023-03-18T09:22:06.225Z,11.85
2023-03-18T09:24:34.914Z,16.48
2023-03-18T09:27:02.520Z,13.77
2023-03-18T09:29:30.053Z,14.05
2023-03-18T09:31:57.577Z,13.10
2023-03-18T09:34:25.043Z,12.75
2023-03-18T09:36:55.007Z,13.63
2023-03-18T09:39:22.947Z,13.52
2023-03-18T09:41:59.628Z,14.38
2023-03-18T09:44:31.797Z,14.25
2023-03-18T09:49:41.540Z,11.43
2023-03-18T09:52:29.995Z,15.07
2023-03-18T09:55:16.301Z,13.23
2023-03-18T09:57:47.479Z,12.73
2023-03-18T10:00:26.050Z,12.45
2023-03-18T10:03:08.649Z,12.25
2023-03-18T10:05:53.802Z,15.25
2023-03-18T10:08:44.984Z,15.55
2023-03-18T10:11:26.666Z,13.20
2023-03-18T10:14:29.127Z,13.27
2023-03-18T10:17:02.601Z,9.93
2023-03-18T10:19:30.303Z,9.15
2023-03-18T10:22:00.804Z,7.47
2023-03-18T10:24:32.088Z,8.57
2023-03-18T10:27:14.830Z,9.57
2023-03-18T10:29:55.930Z,14.38
2023-03-18T10:32:50.045Z,9.13
2023-03-18T10:35:35.498Z,9.55
2023-03-18T10:38:05.741Z,9.07
2023-03-18T10:40:38.282Z,8.60
2023-03-18T10:43:16.986Z,10.15
2023-03-18T10:45:47.747Z,8.50
2023-03-18T10:48:31.151Z,9.55
2023-03-18T10:51:36.017Z,10.57
2023-03-18T10:54:13.870Z,8.63
2023-03-18T10:56:41.604Z,9.23
2023-03-18T10:59:18.234Z,7.40
2023-03-18T11:01:49.916Z,11.32
2023-03-18T11:04:21.670Z,8.95
2023-03-18T11:07:08.723Z,11.95
2023-03-18T11:09:39.553Z,8.25
2023-03-18T11:12:18.990Z,7.57
2023-03-18T11:14:50.748Z,12.77
2023-03-18T11:17:24.296Z,10.63
2023-03-18T11:20:15.063Z,14.30
2023-03-18T11:22:46.763Z,8.95
2023-03-18T11:25:26.710Z,8.98
2023-03-18T11:28:00.866Z,9.02
2023-03-18T11:30:34.835Z,11.55
2023-03-18T11:33:12.198Z,10.15
2023-03-18T11:36:15.772Z,7.95
2023-03-18T11:38:44.692Z,8.63
2023-03-18T11:41:25.448Z,5.97
2023-03-18T11:44:00.286Z,7.15
2023-03-18T11:46:33.076Z,5.07
2023-03-18T11:49:00.925Z,7.53
2023-03-18T11:51:31.890Z,10.68
2023-03-18T11:54:13.470Z,7.75
2023-03-18T11:56:47.835Z,10.48
2023-03-18T11:59:37.040Z,6.68
2023-03-18T12:02:29.105Z,5.70
2023-03-18T12:05:17.986Z,6.40
2023-03-18T12:08:11.841Z,6.20
2023-03-18T12:10:48.656Z,5.25
2023-03-18T12:13:40.997Z,7.47
2023-03-18T12:16:41.396Z,4.82
2023-03-18T12:19:18.170Z,7.53
2023-03-18T12:21:54.694Z,8.60
2023-03-18T12:24:54.608Z,10.13
2023-03-18T12:27:50.176Z,6.07
2023-03-18T12:30:19.461Z,6.95
2023-03-18T12:33:17.684Z,11.85
2023-03-18T12:36:19.010Z,9.32
2023-03-18T12:39:10.939Z,5.40
2023-03-18T12:42:01.117Z,7.90
2023-03-18T12:45:00.927Z,7.78
2023-03-18T12:47:53.244Z,5.85
2023-03-18T12:50:33.391Z,7.07
2023-03-18T12:53:04.295Z,7.55
2023-03-18T12:55:40.176Z,8.32
2023-03-18T12:58:24.226Z,7.90
2023-03-18T13:00:55.426Z,8.07
2023-03-18T13:03:37.856Z,7.83
2023-03-18T13:09:00.653Z,6.78
2023-03-18T13:11:55.357Z,9.38
2023-03-18T13:14:58.367Z,5.40
2023-03-18T13:17:44.922Z,4.85
2023-03-18T13:20:14.516Z,6.20
2023-03-18T13:22:46.074Z,6.72
2023-03-18T13:25:17.920Z,5.32
2023-03-18T13:28:10.060Z,4.05
2023-03-18T13:31:09.382Z,8.80
2023-03-18T13:33:54.983Z,5.05
2023-03-18T13:36:47.634Z,4.43
2023-03-18T13:39:20.478Z,5.70
2023-03-18T13:42:03.079Z,6.28
2023-03-18T13:44:43.448Z,8.23
2023-03-18T13:47:18.532Z,7.57
2023-03-18T13:49:46.751Z,4.95
2023-03-18T13:52:44.358Z,8.85
2023-03-18T13:55:45.050Z,7.93
2023-03-18T13:58:27.374Z,7.22
2023-03-18T14:03:33.291Z,9.10
2023-03-18T14:06:10.107Z,4.78
2023-03-18T14:08:42.361Z,8.05
2023-03-18T14:11:19.827Z,5.28
2023-03-18T14:14:05.772Z,8.52
2023-03-18T14:16:37.731Z,4.50
2023-03-18T14:19:32.590Z,7.20
2023-03-18T14:22:20.576Z,5.15
2023-03-18T14:25:08.469Z,7.25
2023-03-18T14:27:46.084Z,5.05
2023-03-18T14:30:43.785Z,4.80
2023-03-18T14:33:14.039Z,6.88
2023-03-18T14:35:47.692Z,2.80
2023-03-18T14:38:39.442Z,2.92
2023-03-18T14:41:25.717Z,6.22
2023-03-18T14:44:03.181Z,2.78
2023-03-18T14:46:37.129Z,5.80
2023-03-18T14:49:31.752Z,2.67
2023-03-18T14:51:59.766Z,4.07
2023-03-18T14:54:28.416Z,1.33
2023-03-18T14:56:56.641Z,2.95
2023-03-18T14:59:27.889Z,3.70
2023-03-18T15:01:55.708Z,2.27
2023-03-18T15:04:25.921Z,2.65
2023-03-18T15:06:55.678Z,3.40
2023-03-18T15:09:29.154Z,13.80
2023-03-18T15:11:57.771Z,2.67
2023-03-18T15:14:30.061Z,6.85
2023-03-18T15:17:01.338Z,5.60
2023-03-18T15:19:30.637Z,5.27
2023-03-18T15:22:04.609Z,3.72
2023-03-18T15:24:32.673Z,3.30
2023-03-18T15:27:07.002Z,3.22
2023-03-18T15:29:38.648Z,7.03
2023-03-18T15:32:25.319Z,3.33
2023-03-18T15:35:13.082Z,3.15
2023-03-18T15:37:44.576Z,5.78
2023-03-18T15:40:35.345Z,7.68
2023-03-18T15:43:11.830Z,2.50
2023-03-18T15:45:47.303Z,2.67
2023-03-18T15:48:43.220Z,3.00
2023-03-18T15:51:27.769Z,7.28
2023-03-18T15:54:04.062Z,2.30
2023-03-18T15:56:33.716Z,2.47
2023-03-18T15:59:11.641Z,5.25
2023-03-18T16:01:40.102Z,1.88
2023-03-18T16:04:12.286Z,4.43
2023-03-18T16:09:19.877Z,3.53
2023-03-18T16:11:54.404Z,4.13
2023-03-18T16:14:29.563Z,5.80
2023-03-18T16:16:57.157Z,1.55
2023-03-18T16:19:28.294Z,4.53
2023-03-18T16:21:58.232Z,2.60
2023-03-18T16:24:26.231Z,1.42
2023-03-18T16:26:55.658Z,0.98
2023-03-18T16:29:30.137Z,2.75
2023-03-18T16:31:58.078Z,4.75
2023-03-18T16:34:25.928Z,2.30
2023-03-18T16:36:53.636Z,3.58
2023-03-18T16:39:27.310Z,3.08
2023-03-18T16:41:54.869Z,1.95
2023-03-18T16:44:24.253Z,3.35
2023-03-18T16:46:57.564Z,2.72
2023-03-18T16:49:30.825Z,4.18
2023-03-18T16:51:59.141Z,3.78
2023-03-18T16:54:29.871Z,3.20
2023-03-18T16:57:03.066Z,2.80
2023-03-18T16:59:33.937Z,2.78
2023-03-18T17:02:04.020Z,3.50
2023-03-18T17:04:36.468Z,4.43
2023-03-18T17:07:05.538Z,3.20
2023-03-18T17:09:33.058Z,4.43
2023-03-18T17:12:05.459Z,3.72
2023-03-18T17:14:36.184Z,1.80
2023-03-18T17:17:07.677Z,3.28
2023-03-18T17:19:36.259Z,2.47
2023-03-18T17:22:07.762Z,2.30
2023-03-18T17:24:35.297Z,5.05
2023-03-18T17:27:02.898Z,2.45
2023-03-18T17:29:31.296Z,2.10
2023-03-18T17:31:58.747Z,4.47
2023-03-18T17:34:26.582Z,3.88
2023-03-18T17:36:54.202Z,4.28
2023-03-18T17:39:21.744Z,5.00
2023-03-18T17:41:49.569Z,8.13
2023-03-18T17:44:30.491Z,6.82
2023-03-18T17:46:58.540Z,6.55
2023-03-18T17:49:27.836Z,4.25
2023-03-18T17:51:57.041Z,7.07
2023-03-18T17:54:27.117Z,3.25
2023-03-18T17:56:54.686Z,4.28
2023-03-18T17:59:22.160Z,5.05
2023-03-18T18:01:51.361Z,4.38
2023-03-18T18:04:22.112Z,17.60
2023-03-18T18:06:50.100Z,10.27
2023-03-18T18:09:19.340Z,4.82
2023-03-18T18:11:48.965Z,3.30
2023-03-18T18:14:28.831Z,4.90
2023-03-18T18:16:57.182Z,6.53
2023-03-18T18:19:25.115Z,3.47
2023-03-18T18:21:54.816Z,5.78
2023-03-18T18:24:33.235Z,5.85
2023-03-18T18:27:00.947Z,2.75
2023-03-18T18:29:29.344Z,5.57
2023-03-18T18:31:57.201Z,3.58
2023-03-18T18:34:24.732Z,4.75
2023-03-18T18:36:52.341Z,6.93
2023-03-18T18:39:21.007Z,7.55
2023-03-18T18:41:48.731Z,7.40
2023-03-18T18:44:16.453Z,5.60
2023-03-18T18:46:44.040Z,2.75
2023-03-18T18:49:25.450Z,4.68
2023-03-18T18:51:54.749Z,4.28
2023-03-18T18:54:23.371Z,7.60
2023-03-18T18:56:51.495Z,4.40
2023-03-18T18:59:31.925Z,4.32
2023-03-18T19:02:00.673Z,5.82
2023-03-18T19:04:29.116Z,5.53
2023-03-18T19:06:56.873Z,8.25
2023-03-18T19:09:26.417Z,6.15
2023-03-18T19:11:56.057Z,5.65
2023-03-18T19:14:27.705Z,5.22
2023-03-18T19:16:58.308Z,7.38
2023-03-18T19:19:29.966Z,3.45
2023-03-18T19:21:58.910Z,4.75
2023-03-18T19:24:36.990Z,6.35
2023-03-18T19:27:07.617Z,5.63
2023-03-18T19:29:35.180Z,4.85
2023-03-18T19:32:03.004Z,7.15
2023-03-18T19:34:32.047Z,5.88
2023-03-18T19:36:59.837Z,5.65
2023-03-18T19:39:28.231Z,5.63
2023-03-18T19:41:56.065Z,6.22
2023-03-18T19:44:26.322Z,7.75
2023-03-18T19:46:58.529Z,5.00
2023-03-18T19:52:01.014Z,3.65
2023-03-18T19:54:32.667Z,5.25
2023-03-18T19:57:03.829Z,5.38
2023-03-18T19:59:38.539Z,8.63
2023-03-18T20:02:19.762Z,5.35
2023-03-18T20:04:49.392Z,5.70
2023-03-18T20:07:18.669Z,2.03
2023-03-18T20:09:46.845Z,4.05
2023-03-18T20:12:39.966Z,4.20
2023-03-18T20:15:13.527Z,3.08
2023-03-18T20:17:48.028Z,5.80
2023-03-18T20:20:24.418Z,3.10
2023-03-18T20:22:55.192Z,4.18
2023-03-18T20:25:34.180Z,2.92
2023-03-18T20:28:02.266Z,4.78
2023-03-18T20:30:32.727Z,7.75
2023-03-18T20:33:03.795Z,5.30
2023-03-18T20:35:34.670Z,3.97
2023-03-18T20:38:13.924Z,5.75
2023-03-18T20:40:42.553Z,6.60
2023-03-18T20:43:20.979Z,3.33
2023-03-18T20:45:50.331Z,7.95
2023-03-18T20:48:18.196Z,4.35
2023-03-18T20:50:46.724Z,1.55
2023-03-18T20:53:21.881Z,8.73
2023-03-18T20:55:49.947Z,2.75
2023-03-18T20:58:23.859Z,4.78
2023-03-18T21:00:52.664Z,1.70
2023-03-18T21:03:35.427Z,3.03
2023-03-18T21:06:04.354Z,2.67
2023-03-18T21:08:33.145Z,3.97
2023-03-18T21:11:02.408Z,3.10
2023-03-18T21:13:39.396Z,3.97
2023-03-18T21:16:13.505Z,1.40
2023-03-18T21:18:41.927Z,0.98
2023-03-18T21:21:18.864Z,2.05
2023-03-18T21:23:46.359Z,1.67
2023-03-18T21:26:13.917Z,2.95
2023-03-18T21:28:41.604Z,1.95
2023-03-18T21:31:31.172Z,2.95
2023-03-18T21:33:58.688Z,0.88
2023-03-18T21:36:27.102Z,2.70
2023-03-18T21:38:54.656Z,0.73
2023-03-18T21:41:27.007Z,0.75
2023-03-18T21:46:24.524Z,4.05
2023-03-18T21:48:53.125Z,1.10
2023-03-18T21:51:38.186Z,2.08
2023-03-18T21:54:07.199Z,1.05
2023-03-18T21:56:34.751Z,3.05
2023-03-18T21:59:02.253Z,3.38
2023-03-18T22:01:32.369Z,1.27
2023-03-18T22:04:00.364Z,1.27
2023-03-18T22:06:28.094Z,1.02
2023-03-18T22:08:56.847Z,1.52
2023-03-18T22:11:24.451Z,3.70
2023-03-18T22:13:52.214Z,1.40
2023-03-18T22:16:19.928Z,1.65
2023-03-18T22:18:48.075Z,0.55
2023-03-18T22:21:24.289Z,2.20
2023-03-18T22:23:52.331Z,1.67
2023-03-18T22:26:21.067Z,1.35
2023-03-18T22:28:50.483Z,1.25
2023-03-18T22:31:24.648Z,1.52
2023-03-18T22:33:52.365Z,1.70
2023-03-18T22:36:21.764Z,1.70
2023-03-18T22:38:49.667Z,0.85
2023-03-18T22:41:23.291Z,1.65
2023-03-18T22:43:51.296Z,1.40
2023-03-18T22:46:19.282Z,3.15
2023-03-18T22:48:46.899Z,3.92
2023-03-18T22:51:23.921Z,3.28
2023-03-18T22:53:53.795Z,1.80
2023-03-18T22:56:22.723Z,3.05
2023-03-18T22:58:50.738Z,5.20
2023-03-18T23:01:20.997Z,3.35
2023-03-18T23:03:49.363Z,3.08
2023-03-18T23:06:20.207Z,1.50
2023-03-18T23:08:48.036Z,4.78
2023-03-18T23:11:16.890Z,2.67
2023-03-18T23:13:49.740Z,2.83
2023-03-18T23:16:20.366Z,2.88
2023-03-18T23:18:51.301Z,5.80
2023-03-18T23:21:25.364Z,4.22
2023-03-18T23:23:53.516Z,5.82
2023-03-18T23:26:21.693Z,3.63
2023-03-18T23:28:49.668Z,3.00
2023-03-18T23:31:18.091Z,3.17
2023-03-18T23:33:47.122Z,2.10
2023-03-18T23:36:14.718Z,4.07
2023-03-18T23:38:42.513Z,5.22
2023-03-18T23:41:10.270Z,2.80
2023-03-18T23:43:37.775Z,5.15
2023-03-18T23:46:05.663Z,2.03
2023-03-18T23:48:33.324Z,3.40
2023-03-18T23:51:00.913Z,3.97
2023-03-18T23:53:28.749Z,2.83
2023-03-18T23:55:56.723Z,4.63
2023-03-18T23:58:24.223Z,4.13
